Kvb Contargo III & X — PD5101 — position and weather

sailwx.info

Track history (hours):
 
Tides and Currents Weather Stations Pressure Air Temp Water Temp Dewpoint Dewpoint Depression Visibility Wind Speed Wind Dir Waves Ship Positions

Kvb Contargo III & X

Last reported at 2014-Sep-16 00:34 UTC. Time now 2014-Sep-16 01:00 UTC.
Position N 51°18' E 004°17'.

Length 182 m.

Type: Ship. MMSI: 244670090.

Date/timePositionNaut miles runAvg speedWind from/ knotsBaromVisibWave heightAir tempDewpointWater temp
2014-Sep-16 00:34N 51°18' E 004°17'0 0.0
2014-Sep-15 23:33N 51°18' E 004°17'0 0.0
2014-Sep-15 22:33N 51°18' E 004°17'0 0.0
2014-Sep-15 21:33N 51°18' E 004°17'0 0.0
2014-Sep-15 20:34N 51°18' E 004°17'0 0.0
2014-Sep-15 19:33N 51°18' E 004°17'0 0.0
2014-Sep-15 18:32N 51°18' E 004°17'0 0.0
2014-Sep-15 17:31N 51°18' E 004°17'0 0.0
2014-Sep-15 16:32N 51°18' E 004°17'0 0.0
2014-Sep-15 15:31N 51°18' E 004°17'0 0.0
2014-Sep-15 14:33N 51°18' E 004°17'1 1.5
2014-Sep-15 13:32N 51°17' E 004°19'1 0.8
2014-Sep-15 12:32N 51°17' E 004°20'0 0.0
2014-Sep-15 11:33N 51°17' E 004°20'1 0.7
2014-Sep-15 10:33N 51°16' E 004°21'0 0.1
2014-Sep-15 09:33N 51°16' E 004°21'7 6.1
2014-Sep-15 08:22N 51°23' E 004°16'5 5.7
2014-Sep-15 07:33N 51°27' E 004°14'7 6.0
2014-Sep-15 06:28N 51°33' E 004°14'5 5.8
2014-Sep-15 05:33N 51°39' E 004°16'6 6.0
2014-Sep-15 04:33N 51°41' E 004°25'6 6.1
2014-Sep-15 03:33N 51°42' E 004°34'8 8.0
2014-Sep-15 02:34N 51°47' E 004°45'8 8.0
2014-Sep-15 01:33N 51°50' E 004°57'9 8.9
2014-Sep-15 00:33N 51°49' E 005°11'8 7.7
2014-Sep-14 23:34N 51°50' E 005°24'8 8.2
2014-Sep-14 22:34N 51°54' E 005°35'9 9.1
2014-Sep-14 21:31N 51°52' E 005°50'8 7.0
2014-Sep-14 20:25N 51°52' E 006°03'9 9.4
2014-Sep-14 19:28N 51°49' E 006°16'36 6.6
2014-Sep-14 14:04N 51°18' E 006°43'4 7.7
2014-Sep-14 13:32N 51°14' E 006°46'5 5.0
2014-Sep-14 12:33N 51°09' E 006°47'125 6.9
2014-Sep-13 18:20N 49°23' E 008°30'6 7.5
2014-Sep-13 17:33N 49°17' E 008°28'10 9.6
2014-Sep-13 16:33N 49°08' E 008°22'1010.2
2014-Sep-13 15:33N 48°59' E 008°16'10 9.8
2014-Sep-13 14:33N 48°51' E 008°07'4 4.0
2014-Sep-13 13:30N 48°47' E 008°03'8 8.2
2014-Sep-13 12:34N 48°42' E 007°55'1 0.9
2014-Sep-13 11:32N 48°41' E 007°54'65 3.3
2014-Sep-12 15:30N 47°37' E 007°35'1 0.6
2014-Sep-12 14:33N 47°36' E 007°35'0 0.0
2014-Sep-12 13:33N 47°36' E 007°35'0 0.0
2014-Sep-12 12:33N 47°36' E 007°35'0 0.2
2014-Sep-12 11:34N 47°36' E 007°35'1 1.2
2014-Sep-12 10:32N 47°35' E 007°36'0 0.1
2014-Sep-12 09:33N 47°35' E 007°36'0 0.0
2014-Sep-12 08:33N 47°35' E 007°36'0 0.0
2014-Sep-12 07:32N 47°35' E 007°36'0 0.0
2014-Sep-12 06:33N 47°35' E 007°36'0 0.0
2014-Sep-12 05:33N 47°35' E 007°36'0 0.0
2014-Sep-12 04:33N 47°35' E 007°36'0 0.2
2014-Sep-12 03:33N 47°35' E 007°36'0 0.0
2014-Sep-12 02:33N 47°35' E 007°36'0 0.0
2014-Sep-12 01:33N 47°35' E 007°36'0 0.0
2014-Sep-12 00:33N 47°35' E 007°36'0 0.0
2014-Sep-11 23:33N 47°35' E 007°36'0 0.0
2014-Sep-11 22:33N 47°35' E 007°36'0 0.0
2014-Sep-11 21:34N 47°35' E 007°36'0 0.0
2014-Sep-11 20:34N 47°35' E 007°36'0 0.0
2014-Sep-11 19:34N 47°35' E 007°36'0 0.2
2014-Sep-11 18:33N 47°35' E 007°36'0 0.0
2014-Sep-11 17:33N 47°35' E 007°36'0 0.0
2014-Sep-11 16:33N 47°35' E 007°36'0 0.1
2014-Sep-11 15:33N 47°35' E 007°36'0 0.0
2014-Sep-11 14:33N 47°35' E 007°36'0 0.2
2014-Sep-11 13:33N 47°35' E 007°36'0 0.0
2014-Sep-11 12:33N 47°35' E 007°36'0 0.0
2014-Sep-11 11:33N 47°35' E 007°36'0 0.0
2014-Sep-11 10:33N 47°35' E 007°36'0 0.0
2014-Sep-11 09:34N 47°35' E 007°36'0 0.0
2014-Sep-11 08:33N 47°35' E 007°36'0 0.0
2014-Sep-11 07:33N 47°35' E 007°36'0 0.0
2014-Sep-11 06:33N 47°35' E 007°36'0 0.0
2014-Sep-11 05:33N 47°35' E 007°36'0 0.1
2014-Sep-11 04:33N 47°35' E 007°36'0 0.0
2014-Sep-11 03:33N 47°35' E 007°36'0 0.0
2014-Sep-11 02:33N 47°35' E 007°36'0 0.0
2014-Sep-11 01:33N 47°35' E 007°36'0 0.0
2014-Sep-11 00:33N 47°35' E 007°36'0 0.0
2014-Sep-10 23:33N 47°35' E 007°36'0 0.0
2014-Sep-10 22:33N 47°35' E 007°36'0 0.0
2014-Sep-10 21:33N 47°35' E 007°36'0 0.0
2014-Sep-10 20:33N 47°35' E 007°36'0 0.0
2014-Sep-10 19:33N 47°35' E 007°36'0 0.1
2014-Sep-10 18:34N 47°35' E 007°36'0 0.0
2014-Sep-10 17:33N 47°35' E 007°36'0 0.0
2014-Sep-10 16:33N 47°35' E 007°36'0 0.1
2014-Sep-10 15:33N 47°35' E 007°36'0 0.0
2014-Sep-10 14:33N 47°35' E 007°36'0 0.1
2014-Sep-10 13:33N 47°35' E 007°36'0 0.0
2014-Sep-10 12:33N 47°35' E 007°36'0 0.0
2014-Sep-10 11:33N 47°35' E 007°36'0 0.0
2014-Sep-10 10:33N 47°35' E 007°36'0 0.0
2014-Sep-10 09:33N 47°35' E 007°36'1 0.6
2014-Sep-10 08:32N 47°36' E 007°36'1 0.8
2014-Sep-10 07:33N 47°36' E 007°35'0 0.0
2014-Sep-10 06:34N 47°36' E 007°35'0 0.0
2014-Sep-10 05:28N 47°36' E 007°35'0 0.0
2014-Sep-10 04:32N 47°36' E 007°35'0 0.0
2014-Sep-10 03:31N 47°36' E 007°35'0 0.0
2014-Sep-10 02:32N 47°36' E 007°35'0 0.0
2014-Sep-10 01:33N 47°36' E 007°35'0 0.0
2014-Sep-10 00:30N 47°36' E 007°35'0 0.0
2014-Sep-09 23:14N 47°36' E 007°35'0 0.0
2014-Sep-09 21:33N 47°36' E 007°35'0 0.0
2014-Sep-09 20:19N 47°36' E 007°35'3 3.8
2014-Sep-09 19:33N 47°39' E 007°32'64 2.7
2014-Sep-08 19:33N 48°41' E 007°55'3 3.5
2014-Sep-08 18:34N 48°44' E 007°58'5 5.1
2014-Sep-08 17:34N 48°47' E 008°04'8 3.8
2014-Sep-08 15:29N 48°54' E 008°09'4 4.1
2014-Sep-08 14:33N 48°58' E 008°12'4 4.3
2014-Sep-08 13:33N 49°00' E 008°17'4 4.5
2014-Sep-08 12:33N 49°04' E 008°20'5 4.6
2014-Sep-08 11:33N 49°09' E 008°22'4 4.3
2014-Sep-08 10:33N 49°13' E 008°23'5 4.9
2014-Sep-08 09:33N 49°17' E 008°28'4 3.7
2014-Sep-08 08:19N 49°21' E 008°29'108 3.9
2014-Sep-07 04:27N 50°54' E 007°02'16 3.9
2014-Sep-07 00:23N 51°08' E 006°51'2 1.9
2014-Sep-06 23:32N 51°09' E 006°49'42 2.9
2014-Sep-06 09:06N 51°47' E 006°19'11 6.6
2014-Sep-06 07:27N 51°52' E 006°04'5 5.5
2014-Sep-06 06:30N 51°52' E 005°55'6 6.0
2014-Sep-06 05:32N 51°53' E 005°46'7 7.3
2014-Sep-06 04:33N 51°54' E 005°35'7 6.7
2014-Sep-06 03:33N 51°51' E 005°25'6 5.5
2014-Sep-06 02:33N 51°49' E 005°17'7 7.2
2014-Sep-06 01:33N 51°50' E 005°05'  
Track history (hours):
 
Tides and Currents Weather Stations Pressure Air Temp Water Temp Dewpoint Dewpoint Depression Visibility Wind Speed Wind Dir Waves Ship Positions

Kvb Contargo III & X

Last reported at 2014-Sep-16 00:34 UTC. Time now 2014-Sep-16 01:00 UTC.
Position N 51°18' E 004°17'.

Length 182 m.

Type: Ship. MMSI: 244670090.

Date/timePositionNaut miles runAvg speedWind from/ knotsBaromVisibWave heightAir tempDewpointWater temp
2014-Sep-16 00:34N 51°18' E 004°17'0 0.0
2014-Sep-15 23:33N 51°18' E 004°17'0 0.0
2014-Sep-15 22:33N 51°18' E 004°17'0 0.0
2014-Sep-15 21:33N 51°18' E 004°17'0 0.0
2014-Sep-15 20:34N 51°18' E 004°17'0 0.0
2014-Sep-15 19:33N 51°18' E 004°17'0 0.0
2014-Sep-15 18:32N 51°18' E 004°17'0 0.0
2014-Sep-15 17:31N 51°18' E 004°17'0 0.0
2014-Sep-15 16:32N 51°18' E 004°17'0 0.0
2014-Sep-15 15:31N 51°18' E 004°17'0 0.0
2014-Sep-15 14:33N 51°18' E 004°17'1 1.5
2014-Sep-15 13:32N 51°17' E 004°19'1 0.8
2014-Sep-15 12:32N 51°17' E 004°20'0 0.0
2014-Sep-15 11:33N 51°17' E 004°20'1 0.7
2014-Sep-15 10:33N 51°16' E 004°21'0 0.1
2014-Sep-15 09:33N 51°16' E 004°21'7 6.1
2014-Sep-15 08:22N 51°23' E 004°16'5 5.7
2014-Sep-15 07:33N 51°27' E 004°14'7 6.0
2014-Sep-15 06:28N 51°33' E 004°14'5 5.8
2014-Sep-15 05:33N 51°39' E 004°16'6 6.0
2014-Sep-15 04:33N 51°41' E 004°25'6 6.1
2014-Sep-15 03:33N 51°42' E 004°34'8 8.0
2014-Sep-15 02:34N 51°47' E 004°45'8 8.0
2014-Sep-15 01:33N 51°50' E 004°57'9 8.9
2014-Sep-15 00:33N 51°49' E 005°11'8 7.7
2014-Sep-14 23:34N 51°50' E 005°24'8 8.2
2014-Sep-14 22:34N 51°54' E 005°35'9 9.1
2014-Sep-14 21:31N 51°52' E 005°50'8 7.0
2014-Sep-14 20:25N 51°52' E 006°03'9 9.4
2014-Sep-14 19:28N 51°49' E 006°16'36 6.6
2014-Sep-14 14:04N 51°18' E 006°43'4 7.7
2014-Sep-14 13:32N 51°14' E 006°46'5 5.0
2014-Sep-14 12:33N 51°09' E 006°47'125 6.9
2014-Sep-13 18:20N 49°23' E 008°30'6 7.5
2014-Sep-13 17:33N 49°17' E 008°28'10 9.6
2014-Sep-13 16:33N 49°08' E 008°22'1010.2
2014-Sep-13 15:33N 48°59' E 008°16'10 9.8
2014-Sep-13 14:33N 48°51' E 008°07'4 4.0
2014-Sep-13 13:30N 48°47' E 008°03'8 8.2
2014-Sep-13 12:34N 48°42' E 007°55'1 0.9
2014-Sep-13 11:32N 48°41' E 007°54'65 3.3
2014-Sep-12 15:30N 47°37' E 007°35'1 0.6
2014-Sep-12 14:33N 47°36' E 007°35'0 0.0
2014-Sep-12 13:33N 47°36' E 007°35'0 0.0
2014-Sep-12 12:33N 47°36' E 007°35'0 0.2
2014-Sep-12 11:34N 47°36' E 007°35'1 1.2
2014-Sep-12 10:32N 47°35' E 007°36'0 0.1
2014-Sep-12 09:33N 47°35' E 007°36'0 0.0
2014-Sep-12 08:33N 47°35' E 007°36'0 0.0
2014-Sep-12 07:32N 47°35' E 007°36'0 0.0
2014-Sep-12 06:33N 47°35' E 007°36'0 0.0
2014-Sep-12 05:33N 47°35' E 007°36'0 0.0
2014-Sep-12 04:33N 47°35' E 007°36'0 0.2
2014-Sep-12 03:33N 47°35' E 007°36'0 0.0
2014-Sep-12 02:33N 47°35' E 007°36'0 0.0
2014-Sep-12 01:33N 47°35' E 007°36'0 0.0
2014-Sep-12 00:33N 47°35' E 007°36'0 0.0
2014-Sep-11 23:33N 47°35' E 007°36'0 0.0
2014-Sep-11 22:33N 47°35' E 007°36'0 0.0
2014-Sep-11 21:34N 47°35' E 007°36'0 0.0
2014-Sep-11 20:34N 47°35' E 007°36'0 0.0
2014-Sep-11 19:34N 47°35' E 007°36'0 0.2
2014-Sep-11 18:33N 47°35' E 007°36'0 0.0
2014-Sep-11 17:33N 47°35' E 007°36'0 0.0
2014-Sep-11 16:33N 47°35' E 007°36'0 0.1
2014-Sep-11 15:33N 47°35' E 007°36'0 0.0
2014-Sep-11 14:33N 47°35' E 007°36'0 0.2
2014-Sep-11 13:33N 47°35' E 007°36'0 0.0
2014-Sep-11 12:33N 47°35' E 007°36'0 0.0
2014-Sep-11 11:33N 47°35' E 007°36'0 0.0
2014-Sep-11 10:33N 47°35' E 007°36'0 0.0
2014-Sep-11 09:34N 47°35' E 007°36'0 0.0
2014-Sep-11 08:33N 47°35' E 007°36'0 0.0
2014-Sep-11 07:33N 47°35' E 007°36'0 0.0
2014-Sep-11 06:33N 47°35' E 007°36'0 0.0
2014-Sep-11 05:33N 47°35' E 007°36'0 0.1
2014-Sep-11 04:33N 47°35' E 007°36'0 0.0
2014-Sep-11 03:33N 47°35' E 007°36'0 0.0
2014-Sep-11 02:33N 47°35' E 007°36'0 0.0
2014-Sep-11 01:33N 47°35' E 007°36'0 0.0
2014-Sep-11 00:33N 47°35' E 007°36'0 0.0
2014-Sep-10 23:33N 47°35' E 007°36'0 0.0
2014-Sep-10 22:33N 47°35' E 007°36'0 0.0
2014-Sep-10 21:33N 47°35' E 007°36'0 0.0
2014-Sep-10 20:33N 47°35' E 007°36'0 0.0
2014-Sep-10 19:33N 47°35' E 007°36'0 0.1
2014-Sep-10 18:34N 47°35' E 007°36'0 0.0
2014-Sep-10 17:33N 47°35' E 007°36'0 0.0
2014-Sep-10 16:33N 47°35' E 007°36'0 0.1
2014-Sep-10 15:33N 47°35' E 007°36'0 0.0
2014-Sep-10 14:33N 47°35' E 007°36'0 0.1
2014-Sep-10 13:33N 47°35' E 007°36'0 0.0
2014-Sep-10 12:33N 47°35' E 007°36'0 0.0
2014-Sep-10 11:33N 47°35' E 007°36'0 0.0
2014-Sep-10 10:33N 47°35' E 007°36'0 0.0
2014-Sep-10 09:33N 47°35' E 007°36'1 0.6
2014-Sep-10 08:32N 47°36' E 007°36'1 0.8
2014-Sep-10 07:33N 47°36' E 007°35'0 0.0
2014-Sep-10 06:34N 47°36' E 007°35'0 0.0
2014-Sep-10 05:28N 47°36' E 007°35'0 0.0
2014-Sep-10 04:32N 47°36' E 007°35'0 0.0
2014-Sep-10 03:31N 47°36' E 007°35'0 0.0
2014-Sep-10 02:32N 47°36' E 007°35'0 0.0
2014-Sep-10 01:33N 47°36' E 007°35'0 0.0
2014-Sep-10 00:30N 47°36' E 007°35'0 0.0
2014-Sep-09 23:14N 47°36' E 007°35'0 0.0
2014-Sep-09 21:33N 47°36' E 007°35'0 0.0
2014-Sep-09 20:19N 47°36' E 007°35'3 3.8
2014-Sep-09 19:33N 47°39' E 007°32'64 2.7
2014-Sep-08 19:33N 48°41' E 007°55'3 3.5
2014-Sep-08 18:34N 48°44' E 007°58'5 5.1
2014-Sep-08 17:34N 48°47' E 008°04'8 3.8
2014-Sep-08 15:29N 48°54' E 008°09'4 4.1
2014-Sep-08 14:33N 48°58' E 008°12'4 4.3
2014-Sep-08 13:33N 49°00' E 008°17'4 4.5
2014-Sep-08 12:33N 49°04' E 008°20'5 4.6
2014-Sep-08 11:33N 49°09' E 008°22'4 4.3
2014-Sep-08 10:33N 49°13' E 008°23'5 4.9
2014-Sep-08 09:33N 49°17' E 008°28'4 3.7
2014-Sep-08 08:19N 49°21' E 008°29'108 3.9
2014-Sep-07 04:27N 50°54' E 007°02'16 3.9
2014-Sep-07 00:23N 51°08' E 006°51'2 1.9
2014-Sep-06 23:32N 51°09' E 006°49'42 2.9
2014-Sep-06 09:06N 51°47' E 006°19'11 6.6
2014-Sep-06 07:27N 51°52' E 006°04'5 5.5
2014-Sep-06 06:30N 51°52' E 005°55'6 6.0
2014-Sep-06 05:32N 51°53' E 005°46'7 7.3
2014-Sep-06 04:33N 51°54' E 005°35'7 6.7
2014-Sep-06 03:33N 51°51' E 005°25'6 5.5
2014-Sep-06 02:33N 51°49' E 005°17'7 7.2
2014-Sep-06 01:33N 51°50' E 005°05'  

Dump ship's entire track history